sensor_id;sensor_type;location;lat;lon;timestamp;temperature;humidity
62904;DHT22;49000;50.698;13.322;2023-05-19T00:01:55;9.20;1.00
62904;DHT22;49000;50.698;13.322;2023-05-19T00:04:20;9.20;1.00
62904;DHT22;49000;50.698;13.322;2023-05-19T00:06:49;9.10;1.00
62904;DHT22;49000;50.698;13.322;2023-05-19T00:09:16;9.10;1.00
62904;DHT22;49000;50.698;13.322;2023-05-19T00:11:42;9.10;1.00
62904;DHT22;49000;50.698;13.322;2023-05-19T00:14:08;9.10;1.00
62904;DHT22;49000;50.698;13.322;2023-05-19T00:16:35;9.10;1.00
62904;DHT22;49000;50.698;13.322;2023-05-19T00:19:03;9.10;1.00
62904;DHT22;49000;50.698;13.322;2023-05-19T00:21:30;9.00;1.00
62904;DHT22;49000;50.698;13.322;2023-05-19T00:23:56;9.00;1.00
62904;DHT22;49000;50.698;13.322;2023-05-19T00:26:22;9.00;1.00
62904;DHT22;49000;50.698;13.322;2023-05-19T00:28:49;9.00;1.00
62904;DHT22;49000;50.698;13.322;2023-05-19T00:31:14;9.00;1.00
62904;DHT22;49000;50.698;13.322;2023-05-19T00:33:40;9.00;1.00
62904;DHT22;49000;50.698;13.322;2023-05-19T00:36:06;8.90;1.00
62904;DHT22;49000;50.698;13.322;2023-05-19T00:38:33;8.90;1.00
62904;DHT22;49000;50.698;13.322;2023-05-19T00:41:00;8.90;1.00
62904;DHT22;49000;50.698;13.322;2023-05-19T00:43:26;8.90;1.00
62904;DHT22;49000;50.698;13.322;2023-05-19T00:45:51;8.90;1.00
62904;DHT22;49000;50.698;13.322;2023-05-19T00:48:17;8.80;1.00
62904;DHT22;49000;50.698;13.322;2023-05-19T00:50:43;8.80;1.00
62904;DHT22;49000;50.698;13.322;2023-05-19T00:53:09;8.80;1.00
62904;DHT22;49000;50.698;13.322;2023-05-19T00:55:36;8.70;1.00
62904;DHT22;49000;50.698;13.322;2023-05-19T00:58:03;8.70;1.20
62904;DHT22;49000;50.698;13.322;2023-05-19T01:00:29;8.70;1.00
62904;DHT22;49000;50.698;13.322;2023-05-19T01:02:55;8.70;1.40
62904;DHT22;49000;50.698;13.322;2023-05-19T01:05:21;8.70;1.50
62904;DHT22;49000;50.698;13.322;2023-05-19T01:07:47;8.60;1.70
62904;DHT22;49000;50.698;13.322;2023-05-19T01:10:19;8.60;2.20
62904;DHT22;49000;50.698;13.322;2023-05-19T01:12:45;8.60;2.70
62904;DHT22;49000;50.698;13.322;2023-05-19T01:15:11;8.60;3.80
62904;DHT22;49000;50.698;13.322;2023-05-19T01:17:40;8.60;3.80
62904;DHT22;49000;50.698;13.322;2023-05-19T01:20:19;8.50;4.90
62904;DHT22;49000;50.698;13.322;2023-05-19T01:26:05;8.50;7.70
62904;DHT22;49000;50.698;13.322;2023-05-19T01:31:36;8.60;8.10
62904;DHT22;49000;50.698;13.322;2023-05-19T01:34:02;8.50;9.50
62904;DHT22;49000;50.698;13.322;2023-05-19T01:36:32;8.50;11.10
62904;DHT22;49000;50.698;13.322;2023-05-19T01:39:00;8.50;12.30
62904;DHT22;49000;50.698;13.322;2023-05-19T01:41:26;8.60;13.30
62904;DHT22;49000;50.698;13.322;2023-05-19T01:43:54;8.60;12.20
62904;DHT22;49000;50.698;13.322;2023-05-19T01:46:21;8.60;12.10
62904;DHT22;49000;50.698;13.322;2023-05-19T01:48:47;8.60;11.60
62904;DHT22;49000;50.698;13.322;2023-05-19T01:51:13;8.60;11.10
62904;DHT22;49000;50.698;13.322;2023-05-19T01:53:38;8.50;11.90
62904;DHT22;49000;50.698;13.322;2023-05-19T01:56:04;8.50;12.40
62904;DHT22;49000;50.698;13.322;2023-05-19T01:58:44;8.50;12.50
62904;DHT22;49000;50.698;13.322;2023-05-19T02:01:33;8.50;13.40
62904;DHT22;49000;50.698;13.322;2023-05-19T02:06:46;8.50;18.50
62904;DHT22;49000;50.698;13.322;2023-05-19T02:09:22;8.50;19.80
62904;DHT22;49000;50.698;13.322;2023-05-19T02:11:55;8.40;19.40
62904;DHT22;49000;50.698;13.322;2023-05-19T02:14:31;8.30;19.00
62904;DHT22;49000;50.698;13.322;2023-05-19T02:16:58;8.30;18.50
62904;DHT22;49000;50.698;13.322;2023-05-19T02:19:27;8.30;17.20
62904;DHT22;49000;50.698;13.322;2023-05-19T02:21:53;8.30;17.60
62904;DHT22;49000;50.698;13.322;2023-05-19T02:24:18;8.30;17.30
62904;DHT22;49000;50.698;13.322;2023-05-19T02:26:45;8.30;17.00
62904;DHT22;49000;50.698;13.322;2023-05-19T02:29:10;8.20;17.20
62904;DHT22;49000;50.698;13.322;2023-05-19T02:31:36;8.20;16.90
62904;DHT22;49000;50.698;13.322;2023-05-19T02:34:01;8.10;17.20
62904;DHT22;49000;50.698;13.322;2023-05-19T02:36:27;8.10;17.10
62904;DHT22;49000;50.698;13.322;2023-05-19T02:38:52;8.00;16.80
62904;DHT22;49000;50.698;13.322;2023-05-19T02:41:18;7.90;15.80
62904;DHT22;49000;50.698;13.322;2023-05-19T02:43:43;7.90;14.60
62904;DHT22;49000;50.698;13.322;2023-05-19T02:46:09;7.80;13.10
62904;DHT22;49000;50.698;13.322;2023-05-19T02:48:34;7.70;11.40
62904;DHT22;49000;50.698;13.322;2023-05-19T02:51:00;7.70;11.40
62904;DHT22;49000;50.698;13.322;2023-05-19T02:53:25;7.60;11.40
62904;DHT22;49000;50.698;13.322;2023-05-19T02:55:51;7.50;10.40
62904;DHT22;49000;50.698;13.322;2023-05-19T02:58:16;7.50;11.30
62904;DHT22;49000;50.698;13.322;2023-05-19T03:00:43;7.40;10.80
62904;DHT22;49000;50.698;13.322;2023-05-19T03:03:09;7.50;11.20
62904;DHT22;49000;50.698;13.322;2023-05-19T03:05:35;7.40;12.80
62904;DHT22;49000;50.698;13.322;2023-05-19T03:08:01;7.40;13.20
62904;DHT22;49000;50.698;13.322;2023-05-19T03:10:26;7.40;13.90
62904;DHT22;49000;50.698;13.322;2023-05-19T03:12:51;7.30;14.30
62904;DHT22;49000;50.698;13.322;2023-05-19T03:15:17;7.30;15.00
62904;DHT22;49000;50.698;13.322;2023-05-19T03:17:43;7.20;15.90
62904;DHT22;49000;50.698;13.322;2023-05-19T03:20:09;7.30;15.90
62904;DHT22;49000;50.698;13.322;2023-05-19T03:22:35;7.30;16.90
62904;DHT22;49000;50.698;13.322;2023-05-19T03:25:01;7.20;18.40
62904;DHT22;49000;50.698;13.322;2023-05-19T03:27:26;7.20;18.20
62904;DHT22;49000;50.698;13.322;2023-05-19T03:29:52;7.20;17.80
62904;DHT22;49000;50.698;13.322;2023-05-19T03:32:18;7.20;19.60
62904;DHT22;49000;50.698;13.322;2023-05-19T03:34:43;7.10;19.10
62904;DHT22;49000;50.698;13.322;2023-05-19T03:37:09;7.10;19.70
62904;DHT22;49000;50.698;13.322;2023-05-19T03:39:35;6.90;19.60
62904;DHT22;49000;50.698;13.322;2023-05-19T03:42:00;6.70;19.10
62904;DHT22;49000;50.698;13.322;2023-05-19T03:44:26;7.00;19.60
62904;DHT22;49000;50.698;13.322;2023-05-19T03:46:51;7.00;18.50
62904;DHT22;49000;50.698;13.322;2023-05-19T03:49:17;7.00;19.10
62904;DHT22;49000;50.698;13.322;2023-05-19T03:51:42;6.80;18.50
62904;DHT22;49000;50.698;13.322;2023-05-19T03:54:08;6.50;17.30
62904;DHT22;49000;50.698;13.322;2023-05-19T03:56:38;6.30;17.50
62904;DHT22;49000;50.698;13.322;2023-05-19T03:59:03;6.50;18.70
62904;DHT22;49000;50.698;13.322;2023-05-19T04:01:32;6.50;17.30
62904;DHT22;49000;50.698;13.322;2023-05-19T04:03:57;6.70;16.90
62904;DHT22;49000;50.698;13.322;2023-05-19T04:06:23;6.40;16.80
62904;DHT22;49000;50.698;13.322;2023-05-19T04:08:49;6.60;16.90
62904;DHT22;49000;50.698;13.322;2023-05-19T04:11:14;6.80;17.60
62904;DHT22;49000;50.698;13.322;2023-05-19T04:13:40;6.80;18.00
62904;DHT22;49000;50.698;13.322;2023-05-19T04:16:06;6.90;20.00
62904;DHT22;49000;50.698;13.322;2023-05-19T04:18:31;6.90;19.70
62904;DHT22;49000;50.698;13.322;2023-05-19T04:20:57;7.00;23.80
62904;DHT22;49000;50.698;13.322;2023-05-19T04:23:22;7.00;32.30
62904;DHT22;49000;50.698;13.322;2023-05-19T04:25:48;7.00;36.90
62904;DHT22;49000;50.698;13.322;2023-05-19T04:28:14;7.20;47.40
62904;DHT22;49000;50.698;13.322;2023-05-19T04:30:40;7.30;51.10
62904;DHT22;49000;50.698;13.322;2023-05-19T04:33:07;7.40;53.60
62904;DHT22;49000;50.698;13.322;2023-05-19T04:35:33;7.60;58.70
62904;DHT22;49000;50.698;13.322;2023-05-19T04:37:59;7.70;62.40
62904;DHT22;49000;50.698;13.322;2023-05-19T04:40:26;7.80;61.20
62904;DHT22;49000;50.698;13.322;2023-05-19T04:42:51;7.90;57.60
62904;DHT22;49000;50.698;13.322;2023-05-19T04:45:18;8.00;57.10
62904;DHT22;49000;50.698;13.322;2023-05-19T04:47:43;8.10;56.90
62904;DHT22;49000;50.698;13.322;2023-05-19T04:50:11;8.20;54.20
62904;DHT22;49000;50.698;13.322;2023-05-19T04:52:37;8.20;48.20
62904;DHT22;49000;50.698;13.322;2023-05-19T04:55:02;8.30;42.50
62904;DHT22;49000;50.698;13.322;2023-05-19T04:57:28;8.40;43.80
62904;DHT22;49000;50.698;13.322;2023-05-19T04:59:53;8.40;39.10
62904;DHT22;49000;50.698;13.322;2023-05-19T05:02:27;8.50;40.30
62904;DHT22;49000;50.698;13.322;2023-05-19T05:04:52;8.70;38.50
62904;DHT22;49000;50.698;13.322;2023-05-19T05:07:19;8.80;40.10
62904;DHT22;49000;50.698;13.322;2023-05-19T05:09:46;8.80;33.70
62904;DHT22;49000;50.698;13.322;2023-05-19T05:12:13;8.90;27.80
62904;DHT22;49000;50.698;13.322;2023-05-19T05:14:39;8.90;23.20
62904;DHT22;49000;50.698;13.322;2023-05-19T05:17:04;9.10;23.70
62904;DHT22;49000;50.698;13.322;2023-05-19T05:19:31;9.20;23.00
62904;DHT22;49000;50.698;13.322;2023-05-19T05:21:57;9.20;19.80
62904;DHT22;49000;50.698;13.322;2023-05-19T05:24:22;9.40;18.90
62904;DHT22;49000;50.698;13.322;2023-05-19T05:26:48;9.50;17.90
62904;DHT22;49000;50.698;13.322;2023-05-19T05:29:14;9.70;19.40
62904;DHT22;49000;50.698;13.322;2023-05-19T05:31:39;9.80;15.40
62904;DHT22;49000;50.698;13.322;2023-05-19T05:34:05;10.00;12.70
62904;DHT22;49000;50.698;13.322;2023-05-19T05:36:30;10.10;13.30
62904;DHT22;49000;50.698;13.322;2023-05-19T05:38:56;10.20;12.60
62904;DHT22;49000;50.698;13.322;2023-05-19T05:41:23;10.20;10.10
62904;DHT22;49000;50.698;13.322;2023-05-19T05:43:50;10.10;11.20
62904;DHT22;49000;50.698;13.322;2023-05-19T05:46:15;10.10;10.70
62904;DHT22;49000;50.698;13.322;2023-05-19T05:48:41;10.10;10.70
62904;DHT22;49000;50.698;13.322;2023-05-19T05:51:07;10.20;10.50
62904;DHT22;49000;50.698;13.322;2023-05-19T05:53:36;10.30;6.50
62904;DHT22;49000;50.698;13.322;2023-05-19T05:56:03;10.40;7.20
62904;DHT22;49000;50.698;13.322;2023-05-19T05:58:29;10.40;4.90
62904;DHT22;49000;50.698;13.322;2023-05-19T06:00:56;10.40;1.80
62904;DHT22;49000;50.698;13.322;2023-05-19T06:03:22;10.50;1.00
62904;DHT22;49000;50.698;13.322;2023-05-19T06:05:48;10.50;1.00
62904;DHT22;49000;50.698;13.322;2023-05-19T06:08:14;10.70;1.00
62904;DHT22;49000;50.698;13.322;2023-05-19T06:10:39;10.90;1.00
62904;DHT22;49000;50.698;13.322;2023-05-19T06:13:07;11.10;1.00
62904;DHT22;49000;50.698;13.322;2023-05-19T06:15:32;11.30;1.00
62904;DHT22;49000;50.698;13.322;2023-05-19T06:17:58;11.50;1.00
62904;DHT22;49000;50.698;13.322;2023-05-19T06:20:23;11.60;1.00
62904;DHT22;49000;50.698;13.322;2023-05-19T06:22:49;11.80;1.00
62904;DHT22;49000;50.698;13.322;2023-05-19T06:25:14;11.90;1.00
62904;DHT22;49000;50.698;13.322;2023-05-19T06:27:40;12.20;1.00
62904;DHT22;49000;50.698;13.322;2023-05-19T06:30:06;12.30;1.00
62904;DHT22;49000;50.698;13.322;2023-05-19T06:32:32;12.70;1.00
62904;DHT22;49000;50.698;13.322;2023-05-19T06:34:58;13.00;1.00
62904;DHT22;49000;50.698;13.322;2023-05-19T06:37:23;13.00;1.00
62904;DHT22;49000;50.698;13.322;2023-05-19T06:39:51;13.20;1.00
62904;DHT22;49000;50.698;13.322;2023-05-19T06:42:21;13.10;1.00
62904;DHT22;49000;50.698;13.322;2023-05-19T06:44:51;13.20;1.00
62904;DHT22;49000;50.698;13.322;2023-05-19T06:47:17;13.20;1.00
62904;DHT22;49000;50.698;13.322;2023-05-19T06:49:44;13.40;1.00
62904;DHT22;49000;50.698;13.322;2023-05-19T06:52:10;13.70;1.00
62904;DHT22;49000;50.698;13.322;2023-05-19T06:54:35;13.80;1.00
62904;DHT22;49000;50.698;13.322;2023-05-19T06:57:01;13.90;1.00
62904;DHT22;49000;50.698;13.322;2023-05-19T06:59:27;14.00;1.00
62904;DHT22;49000;50.698;13.322;2023-05-19T07:01:52;14.00;1.00
62904;DHT22;49000;50.698;13.322;2023-05-19T07:04:17;14.10;1.00
62904;DHT22;49000;50.698;13.322;2023-05-19T07:06:43;14.40;1.00
62904;DHT22;49000;50.698;13.322;2023-05-19T07:09:08;14.30;1.00
62904;DHT22;49000;50.698;13.322;2023-05-19T07:11:34;14.50;1.00
62904;DHT22;49000;50.698;13.322;2023-05-19T07:13:59;14.80;1.00
62904;DHT22;49000;50.698;13.322;2023-05-19T07:16:25;15.10;1.00
62904;DHT22;49000;50.698;13.322;2023-05-19T07:18:50;15.20;1.00
62904;DHT22;49000;50.698;13.322;2023-05-19T07:21:16;15.30;1.00
62904;DHT22;49000;50.698;13.322;2023-05-19T07:23:41;15.30;1.00
62904;DHT22;49000;50.698;13.322;2023-05-19T07:26:07;15.30;1.00
62904;DHT22;49000;50.698;13.322;2023-05-19T07:28:32;15.40;1.00
62904;DHT22;49000;50.698;13.322;2023-05-19T07:30:59;15.60;1.00
62904;DHT22;49000;50.698;13.322;2023-05-19T07:33:25;15.90;1.00
62904;DHT22;49000;50.698;13.322;2023-05-19T07:35:51;15.80;1.00
62904;DHT22;49000;50.698;13.322;2023-05-19T07:38:17;15.90;1.00
62904;DHT22;49000;50.698;13.322;2023-05-19T07:40:42;16.40;1.00
62904;DHT22;49000;50.698;13.322;2023-05-19T07:43:08;16.80;1.00
62904;DHT22;49000;50.698;13.322;2023-05-19T07:45:33;17.10;1.00
62904;DHT22;49000;50.698;13.322;2023-05-19T07:47:59;16.90;1.00
62904;DHT22;49000;50.698;13.322;2023-05-19T07:50:24;17.20;1.00
62904;DHT22;49000;50.698;13.322;2023-05-19T07:52:51;17.20;1.00
62904;DHT22;49000;50.698;13.322;2023-05-19T07:55:16;17.20;1.00
62904;DHT22;49000;50.698;13.322;2023-05-19T07:57:43;17.20;1.00
62904;DHT22;49000;50.698;13.322;2023-05-19T08:00:09;17.50;1.00
62904;DHT22;49000;50.698;13.322;2023-05-19T08:02:36;17.90;1.00
62904;DHT22;49000;50.698;13.322;2023-05-19T08:05:02;18.20;1.00
62904;DHT22;49000;50.698;13.322;2023-05-19T08:07:27;18.40;1.00
62904;DHT22;49000;50.698;13.322;2023-05-19T08:09:53;18.40;1.00
62904;DHT22;49000;50.698;13.322;2023-05-19T08:12:18;18.90;1.00
62904;DHT22;49000;50.698;13.322;2023-05-19T08:14:44;18.50;1.00
62904;DHT22;49000;50.698;13.322;2023-05-19T08:17:10;18.40;1.00
62904;DHT22;49000;50.698;13.322;2023-05-19T08:19:35;18.40;1.00
62904;DHT22;49000;50.698;13.322;2023-05-19T08:22:01;18.30;1.00
62904;DHT22;49000;50.698;13.322;2023-05-19T08:24:27;18.20;1.00
62904;DHT22;49000;50.698;13.322;2023-05-19T08:26:56;18.50;1.00
62904;DHT22;49000;50.698;13.322;2023-05-19T08:29:22;18.60;1.00
62904;DHT22;49000;50.698;13.322;2023-05-19T08:31:47;19.20;1.00
62904;DHT22;49000;50.698;13.322;2023-05-19T08:34:13;19.40;1.00
62904;DHT22;49000;50.698;13.322;2023-05-19T08:36:38;19.50;1.00
62904;DHT22;49000;50.698;13.322;2023-05-19T08:39:05;19.80;1.00
62904;DHT22;49000;50.698;13.322;2023-05-19T08:41:31;19.90;1.00
62904;DHT22;49000;50.698;13.322;2023-05-19T08:43:56;19.50;1.00
62904;DHT22;49000;50.698;13.322;2023-05-19T08:46:24;19.60;1.00
62904;DHT22;49000;50.698;13.322;2023-05-19T08:48:53;19.90;1.00
62904;DHT22;49000;50.698;13.322;2023-05-19T08:53:50;20.70;1.00
62904;DHT22;49000;50.698;13.322;2023-05-19T08:56:20;21.10;1.00
62904;DHT22;49000;50.698;13.322;2023-05-19T08:58:48;20.70;1.00
62904;DHT22;49000;50.698;13.322;2023-05-19T09:01:14;20.80;1.00
62904;DHT22;49000;50.698;13.322;2023-05-19T09:03:44;20.90;1.00
62904;DHT22;49000;50.698;13.322;2023-05-19T09:06:10;21.30;1.00
62904;DHT22;49000;50.698;13.322;2023-05-19T09:08:40;21.30;1.00
62904;DHT22;49000;50.698;13.322;2023-05-19T09:11:10;21.40;1.00
62904;DHT22;49000;50.698;13.322;2023-05-19T09:13:35;21.80;1.00
62904;DHT22;49000;50.698;13.322;2023-05-19T09:16:01;21.80;1.00
62904;DHT22;49000;50.698;13.322;2023-05-19T09:18:28;22.30;1.00
62904;DHT22;49000;50.698;13.322;2023-05-19T09:21:00;22.50;1.00
62904;DHT22;49000;50.698;13.322;2023-05-19T09:23:28;22.50;1.00
62904;DHT22;49000;50.698;13.322;2023-05-19T09:25:55;22.40;1.00
62904;DHT22;49000;50.698;13.322;2023-05-19T09:28:28;22.90;1.00
62904;DHT22;49000;50.698;13.322;2023-05-19T09:31:05;22.20;1.00
62904;DHT22;49000;50.698;13.322;2023-05-19T09:33:35;22.60;1.00
62904;DHT22;49000;50.698;13.322;2023-05-19T09:36:01;23.30;1.00
62904;DHT22;49000;50.698;13.322;2023-05-19T09:38:28;23.60;1.00
62904;DHT22;49000;50.698;13.322;2023-05-19T09:40:57;23.50;1.00
62904;DHT22;49000;50.698;13.322;2023-05-19T09:43:23;23.40;1.00
62904;DHT22;49000;50.698;13.322;2023-05-19T09:46:05;23.20;1.00
62904;DHT22;49000;50.698;13.322;2023-05-19T09:48:31;23.20;1.00
62904;DHT22;49000;50.698;13.322;2023-05-19T09:50:58;23.20;1.00
62904;DHT22;49000;50.698;13.322;2023-05-19T09:53:24;23.70;1.00
62904;DHT22;49000;50.698;13.322;2023-05-19T09:55:53;24.00;1.00
62904;DHT22;49000;50.698;13.322;2023-05-19T09:58:19;24.30;1.00
62904;DHT22;49000;50.698;13.322;2023-05-19T10:00:46;24.40;1.00
62904;DHT22;49000;50.698;13.322;2023-05-19T10:03:12;24.00;1.00
62904;DHT22;49000;50.698;13.322;2023-05-19T10:05:38;24.40;1.00
62904;DHT22;49000;50.698;13.322;2023-05-19T10:08:06;24.50;1.00
62904;DHT22;49000;50.698;13.322;2023-05-19T10:10:36;24.60;1.00
62904;DHT22;49000;50.698;13.322;2023-05-19T10:13:02;24.90;1.00
62904;DHT22;49000;50.698;13.322;2023-05-19T10:15:28;25.40;1.00
62904;DHT22;49000;50.698;13.322;2023-05-19T10:17:55;25.20;1.00
62904;DHT22;49000;50.698;13.322;2023-05-19T10:20:20;25.20;1.00
62904;DHT22;49000;50.698;13.322;2023-05-19T10:22:46;25.00;1.00
62904;DHT22;49000;50.698;13.322;2023-05-19T10:25:12;25.20;1.00
62904;DHT22;49000;50.698;13.322;2023-05-19T10:27:55;25.40;1.00
62904;DHT22;49000;50.698;13.322;2023-05-19T10:30:34;25.50;1.00
62904;DHT22;49000;50.698;13.322;2023-05-19T10:33:02;25.00;1.00
62904;DHT22;49000;50.698;13.322;2023-05-19T10:35:35;24.90;1.00
62904;DHT22;49000;50.698;13.322;2023-05-19T10:46:15;25.00;1.00
62904;DHT22;49000;50.698;13.322;2023-05-19T10:48:43;24.90;1.00
62904;DHT22;49000;50.698;13.322;2023-05-19T10:51:10;24.90;1.00
62904;DHT22;49000;50.698;13.322;2023-05-19T10:53:40;25.20;1.00
62904;DHT22;49000;50.698;13.322;2023-05-19T10:56:06;25.40;1.00
62904;DHT22;49000;50.698;13.322;2023-05-19T11:01:14;25.90;1.00
62904;DHT22;49000;50.698;13.322;2023-05-19T11:03:49;25.70;1.00
62904;DHT22;49000;50.698;13.322;2023-05-19T11:06:24;25.10;1.00
62904;DHT22;49000;50.698;13.322;2023-05-19T11:08:58;24.70;1.00
62904;DHT22;49000;50.698;13.322;2023-05-19T11:11:51;24.20;1.00
62904;DHT22;49000;50.698;13.322;2023-05-19T11:14:22;24.40;1.00
62904;DHT22;49000;50.698;13.322;2023-05-19T11:16:55;25.10;1.00
62904;DHT22;49000;50.698;13.322;2023-05-19T11:19:28;25.30;1.00
62904;DHT22;49000;50.698;13.322;2023-05-19T11:21:55;24.90;1.00
62904;DHT22;49000;50.698;13.322;2023-05-19T11:24:42;23.60;1.00
62904;DHT22;49000;50.698;13.322;2023-05-19T11:27:28;23.00;1.00
62904;DHT22;49000;50.698;13.322;2023-05-19T11:32:30;23.10;1.00
62904;DHT22;49000;50.698;13.322;2023-05-19T11:34:56;23.40;1.00
62904;DHT22;49000;50.698;13.322;2023-05-19T11:37:22;23.70;1.00
62904;DHT22;49000;50.698;13.322;2023-05-19T11:39:48;24.30;1.00
62904;DHT22;49000;50.698;13.322;2023-05-19T11:42:14;24.30;1.00
62904;DHT22;49000;50.698;13.322;2023-05-19T11:44:41;23.90;1.00
62904;DHT22;49000;50.698;13.322;2023-05-19T11:47:07;24.00;1.00
62904;DHT22;49000;50.698;13.322;2023-05-19T11:49:33;24.40;1.00
62904;DHT22;49000;50.698;13.322;2023-05-19T11:51:59;24.60;1.00
62904;DHT22;49000;50.698;13.322;2023-05-19T11:54:33;24.60;1.00
62904;DHT22;49000;50.698;13.322;2023-05-19T11:57:03;24.80;1.00
62904;DHT22;49000;50.698;13.322;2023-05-19T11:59:33;24.60;1.00
62904;DHT22;49000;50.698;13.322;2023-05-19T12:02:14;24.50;1.00
62904;DHT22;49000;50.698;13.322;2023-05-19T12:04:40;24.00;1.00
62904;DHT22;49000;50.698;13.322;2023-05-19T12:07:05;24.00;1.00
62904;DHT22;49000;50.698;13.322;2023-05-19T12:09:31;23.60;1.00
62904;DHT22;49000;50.698;13.322;2023-05-19T12:11:56;23.10;1.00
62904;DHT22;49000;50.698;13.322;2023-05-19T12:14:24;22.70;1.00
62904;DHT22;49000;50.698;13.322;2023-05-19T12:16:50;22.50;1.00
62904;DHT22;49000;50.698;13.322;2023-05-19T12:19:15;23.00;1.00
62904;DHT22;49000;50.698;13.322;2023-05-19T12:21:41;23.10;1.00
62904;DHT22;49000;50.698;13.322;2023-05-19T12:24:06;23.60;1.00
62904;DHT22;49000;50.698;13.322;2023-05-19T12:26:34;24.30;1.00
62904;DHT22;49000;50.698;13.322;2023-05-19T12:29:00;24.40;1.00
62904;DHT22;49000;50.698;13.322;2023-05-19T12:31:26;24.40;1.00
62904;DHT22;49000;50.698;13.322;2023-05-19T12:33:51;24.20;1.00
62904;DHT22;49000;50.698;13.322;2023-05-19T12:36:18;23.60;1.00
62904;DHT22;49000;50.698;13.322;2023-05-19T12:38:44;23.70;1.00
62904;DHT22;49000;50.698;13.322;2023-05-19T12:41:10;23.70;1.00
62904;DHT22;49000;50.698;13.322;2023-05-19T12:43:37;23.50;1.00
62904;DHT22;49000;50.698;13.322;2023-05-19T12:46:12;23.90;1.00
62904;DHT22;49000;50.698;13.322;2023-05-19T12:48:45;24.40;1.00
62904;DHT22;49000;50.698;13.322;2023-05-19T12:51:16;24.90;1.00
62904;DHT22;49000;50.698;13.322;2023-05-19T12:53:42;25.30;1.00
62904;DHT22;49000;50.698;13.322;2023-05-19T12:56:12;25.00;1.00
62904;DHT22;49000;50.698;13.322;2023-05-19T12:58:39;23.80;1.00
62904;DHT22;49000;50.698;13.322;2023-05-19T13:01:05;24.00;1.00
62904;DHT22;49000;50.698;13.322;2023-05-19T13:03:30;24.10;1.00
62904;DHT22;49000;50.698;13.322;2023-05-19T13:05:56;24.60;1.00
62904;DHT22;49000;50.698;13.322;2023-05-19T13:08:23;23.80;1.00
62904;DHT22;49000;50.698;13.322;2023-05-19T13:10:49;23.60;1.00
62904;DHT22;49000;50.698;13.322;2023-05-19T13:13:15;23.70;1.00
62904;DHT22;49000;50.698;13.322;2023-05-19T13:15:43;23.90;1.00
62904;DHT22;49000;50.698;13.322;2023-05-19T13:18:10;23.80;1.00
62904;DHT22;49000;50.698;13.322;2023-05-19T13:20:37;23.20;1.00
62904;DHT22;49000;50.698;13.322;2023-05-19T13:23:03;22.90;1.00
62904;DHT22;49000;50.698;13.322;2023-05-19T13:25:31;23.00;1.00
62904;DHT22;49000;50.698;13.322;2023-05-19T13:27:57;23.40;1.00
62904;DHT22;49000;50.698;13.322;2023-05-19T13:30:28;23.60;1.00
62904;DHT22;49000;50.698;13.322;2023-05-19T13:32:54;23.60;1.00
62904;DHT22;49000;50.698;13.322;2023-05-19T13:35:20;23.30;1.00
62904;DHT22;49000;50.698;13.322;2023-05-19T13:37:45;22.90;1.00
62904;DHT22;49000;50.698;13.322;2023-05-19T13:40:12;22.70;1.00
62904;DHT22;49000;50.698;13.322;2023-05-19T13:42:40;22.50;1.00
62904;DHT22;49000;50.698;13.322;2023-05-19T13:45:06;21.90;1.00
62904;DHT22;49000;50.698;13.322;2023-05-19T13:47:31;21.80;1.00
62904;DHT22;49000;50.698;13.322;2023-05-19T13:49:57;22.10;1.00
62904;DHT22;49000;50.698;13.322;2023-05-19T13:52:23;22.10;1.00
62904;DHT22;49000;50.698;13.322;2023-05-19T13:54:49;21.70;1.00
62904;DHT22;49000;50.698;13.322;2023-05-19T13:57:15;21.70;1.00
62904;DHT22;49000;50.698;13.322;2023-05-19T13:59:41;21.80;1.00
62904;DHT22;49000;50.698;13.322;2023-05-19T14:02:07;21.60;1.00
62904;DHT22;49000;50.698;13.322;2023-05-19T14:04:34;21.40;1.00
62904;DHT22;49000;50.698;13.322;2023-05-19T14:07:00;21.20;1.00
62904;DHT22;49000;50.698;13.322;2023-05-19T14:09:25;21.40;1.00
62904;DHT22;49000;50.698;13.322;2023-05-19T14:11:51;21.20;1.00
62904;DHT22;49000;50.698;13.322;2023-05-19T14:14:16;20.80;1.00
62904;DHT22;49000;50.698;13.322;2023-05-19T14:16:42;20.80;1.00
62904;DHT22;49000;50.698;13.322;2023-05-19T14:19:08;20.70;1.00
62904;DHT22;49000;50.698;13.322;2023-05-19T14:21:34;20.80;1.00
62904;DHT22;49000;50.698;13.322;2023-05-19T14:24:00;20.80;1.00
62904;DHT22;49000;50.698;13.322;2023-05-19T14:26:26;20.90;1.00
62904;DHT22;49000;50.698;13.322;2023-05-19T14:28:51;20.70;1.00
62904;DHT22;49000;50.698;13.322;2023-05-19T14:31:17;20.70;1.00
62904;DHT22;49000;50.698;13.322;2023-05-19T14:33:42;20.60;1.00
62904;DHT22;49000;50.698;13.322;2023-05-19T14:36:08;20.70;1.00
62904;DHT22;49000;50.698;13.322;2023-05-19T14:38:34;21.10;1.00
62904;DHT22;49000;50.698;13.322;2023-05-19T14:41:00;21.30;1.00
62904;DHT22;49000;50.698;13.322;2023-05-19T14:43:25;21.20;1.00
62904;DHT22;49000;50.698;13.322;2023-05-19T14:45:51;21.20;1.00
62904;DHT22;49000;50.698;13.322;2023-05-19T14:48:17;21.10;1.00
62904;DHT22;49000;50.698;13.322;2023-05-19T14:50:42;21.10;1.00
62904;DHT22;49000;50.698;13.322;2023-05-19T14:53:08;21.20;1.00
62904;DHT22;49000;50.698;13.322;2023-05-19T14:55:33;20.60;1.00
62904;DHT22;49000;50.698;13.322;2023-05-19T14:57:59;20.30;1.00
62904;DHT22;49000;50.698;13.322;2023-05-19T15:00:24;20.00;1.00
62904;DHT22;49000;50.698;13.322;2023-05-19T15:02:53;19.80;1.00
62904;DHT22;49000;50.698;13.322;2023-05-19T15:05:19;19.50;1.00
62904;DHT22;49000;50.698;13.322;2023-05-19T15:07:44;19.30;1.00
62904;DHT22;49000;50.698;13.322;2023-05-19T15:10:10;19.20;1.00
62904;DHT22;49000;50.698;13.322;2023-05-19T15:12:36;19.20;1.00
62904;DHT22;49000;50.698;13.322;2023-05-19T15:15:02;19.20;1.00
62904;DHT22;49000;50.698;13.322;2023-05-19T15:17:27;19.30;1.00
62904;DHT22;49000;50.698;13.322;2023-05-19T15:19:53;19.40;1.00
62904;DHT22;49000;50.698;13.322;2023-05-19T15:22:18;19.50;1.00
62904;DHT22;49000;50.698;13.322;2023-05-19T15:24:44;19.40;1.00
62904;DHT22;49000;50.698;13.322;2023-05-19T15:27:09;19.40;1.00
62904;DHT22;49000;50.698;13.322;2023-05-19T15:29:35;19.50;1.00
62904;DHT22;49000;50.698;13.322;2023-05-19T15:32:01;19.20;1.00
62904;DHT22;49000;50.698;13.322;2023-05-19T15:34:26;18.90;1.00
62904;DHT22;49000;50.698;13.322;2023-05-19T15:36:52;18.80;1.00
62904;DHT22;49000;50.698;13.322;2023-05-19T15:39:18;18.70;1.00
62904;DHT22;49000;50.698;13.322;2023-05-19T15:41:43;18.60;1.00
62904;DHT22;49000;50.698;13.322;2023-05-19T15:44:09;18.60;1.00
62904;DHT22;49000;50.698;13.322;2023-05-19T15:46:34;18.70;1.00
62904;DHT22;49000;50.698;13.322;2023-05-19T15:49:00;18.70;1.00
62904;DHT22;49000;50.698;13.322;2023-05-19T15:51:25;18.80;1.00
62904;DHT22;49000;50.698;13.322;2023-05-19T15:53:51;18.60;1.00
62904;DHT22;49000;50.698;13.322;2023-05-19T15:56:17;18.60;1.00